00:21
Airports
Links
Donate
Help keep this website running!
PayPal
Bitcoin
METAR
KSEA 132353Z 01015KT 10SM SCT160 BKN250 08/02 A3037 RMK AO2 SLP292 T00780022 10089 20056 55003
Current Weather Conditions at KSEA
VFR 23:53:00 13-12-17
Automated station
Altimeter:30.37 hg
Temp:7.8°c 45°f
Dew point:2.2°c 36°f
Wind:15 knots, 17.3 mph, 8 m/s, from 10°
Visibility:10.0 statute miles
25000(BKN) Broken
16000(SCT) Scattered
Past METAR reports
VFR 22:53:00 13-12-17
Automated station
Altimeter:30.36 hg
Temp:7.8°c 45°f
Dew point:2.8°c 36°f
Wind:10 knots, 11.5 mph, 5 m/s, from 350°
Visibility:10.0 statute miles
25000(BKN) Broken
16000(SCT) Scattered
KSEA 132253Z 35010KT 10SM SCT160 BKN250 08/03 A3036 RMK AO2 SLP292 T00780028
VFR 21:53:00 13-12-17
Automated station
Altimeter:30.37 hg
Temp:8.9°c 46°f
Dew point:2.8°c 36°f
Wind:12 knots, 13.8 mph, 6 m/s, from 20°
Visibility:10.0 statute miles
25000(BKN) Broken
15000(FEW) A few
KSEA 132153Z 02012KT 10SM FEW150 BKN250 09/03 A3037 RMK AO2 SLP291 T00890028
VFR 20:53:00 13-12-17
Automated station
Altimeter:30.38 hg
Temp:8.3°c 46°f
Dew point:3.3°c 37°f
Wind:16 knots, 18.4 mph, 8 m/s, from 20°
Visibility:10.0 statute miles
25000(BKN) Broken
KSEA 132053Z 02016KT 10SM BKN250 08/03 A3038 RMK AO2 SLP295 T00830033 57018
VFR 19:53:00 13-12-17
Automated station
Altimeter:30.40 hg
Temp:8.3°c 46°f
Dew point:3.9°c 37°f
Wind:10 knots, 11.5 mph, 5 m/s, from 360°
Visibility:10.0 statute miles
25000(BKN) Broken
KSEA 131953Z 36010KT 10SM BKN250 08/04 A3040 RMK AO2 SLP304 T00830039
VFR 18:53:00 13-12-17
Automated station
Altimeter:30.40 hg
Temp:6.7°c 43°f
Dew point:2.8°c 36°f
Wind:8 knots, 9.2 mph, 4 m/s, from 10°
Visibility:10.0 statute miles
25000(SCT) Scattered
KSEA 131853Z 01008KT 10SM SCT250 07/03 A3040 RMK AO2 SLP304 T00670028
TAF
KSEA 132320Z 1400/1506 35009KT P6SM SCT160 BKN250 FM140200 02008KT P6SM BKN250 FM141200 04006KT 4SM BR VCFG SCT001 TEMPO 1415/1419 1/2SM FG VV001 FM142100 05004KT P6SM SCT250
Forecast at KSEA
00:00 14-12-17 to 02:00 14-12-17
Wind:9 Knots from 350°
Visibility:6.21 statute miles
16000SCT Scattered
25000BKN Broken
FM 02:00 14-12-17 to 12:00 14-12-17
Wind:8 Knots from 20°
Visibility:6.21 statute miles
25000BKN Broken
FM 12:00 14-12-17 to 21:00 14-12-17
BR VCFG
Wind:6 Knots from 40°
Visibility:4.0 statute miles
100SCT Scattered
TEMPO 15:00 14-12-17 to 19:00 14-12-17
FG
Visibility:0.5 statute miles
OVX
FM 21:00 14-12-17 to 06:00 15-12-17
Wind:4 Knots from 50°
Visibility:6.21 statute miles
25000SCT Scattered